Clarksburg, WV

1:43 AM EST on February 11, 2016 (GMT -0500)
North View | | Change Station
CLOSE
Current Station
Personal Weather Station
Location: Clarksburg, WV
Elevation: 1045 ft
Nearby Weather Stations
Active Advisory: Special Statement Active Notice: Local Storm Report

Elev 1045 ft 39.30 °N, 80.35 °W | Updated 7 seconds ago

Overcast
Overcast
14.3 °F
Feels Like 14 °F
N
2.3
Wind Variable Wind from WSW
Gusts 2.3 mph

Today
High -- | Low -- °F
--% Chance of Precip.
Yesterday
High -- | Low -- °F
Precip. -- in
Pressure 30.03 in
Visibility 10.0 miles
Clouds Overcast 2900 ft
Windchill 14 °F
Dew Point 10 °F
Humidity 83%
Rainfall 0.00 in
Snow Depth Not available.
7:18 AM 5:53 PM
Waxing Crescent, 10% visible
SPECI KCKB 110626Z 25007KT 10SM OVC029 M11/M15 A3003 RMK AO2 T11111150
Pressure 30.03 in
Visibility 10.0 miles
Clouds Overcast 2900 ft
Windchill 14 °F
Dew Point 10 °F
Humidity 83%
Rainfall 0.00 in
Snow Depth Not available.
7:18 AM 5:53 PM
Waxing Crescent, 10% visible
SPECI KCKB 110626Z 25007KT 10SM OVC029 M11/M15 A3003 RMK AO2 T11111150

10-Day Weather Forecast

Almanac

Astronomy

Feb. 11, 2016 Rise Set
Actual Time
Civil Twilight
Nautical Twilight
Astronomical Twilight
Moon
Length of Visible Light
Length of Day
Tomorrow will be .
, % of the Moon is Illuminated

Today's Extremes

State Highs State Lows

Community

WunderPhotos

Upload Photos

1,892,028 photos uploaded!

WunderBlog® & News

Nearby

Air Quality

  Air Quality AQ Index Pollutant
Not available.

Snow Depth

Station Depth Elevation

Earthquake Activity

City Distance Mag. Time & Date
Minimum magnitude displayed is 2.5.

Coastal Water Temperatures

Place Temperature

Stations

Nearby Weather Stations

Station Location Temp. Windchill Dew Point Humidity Wind Precip. Elev Updated Type
                   

Watches & Warnings

Special Statement
Issued: 10:19 PM EST Feb. 10, 2016 – National Weather Service

... Scattered light snow showers continue tonight...

Light snow showers will continue tonight across northern West
Virginia. These snow showers combined with very cold temperatures have
made for hazardous travel conditions tonight.

Additional snowfall accumulations up to a half inch is
possible... and due to the cold temperatures... expect roads to
remain slick into tomorrow morning.



1019 PM EST Wed Feb 10 2016

... Scattered light snow showers continue tonight...

Light snow showers will continue tonight across northern West
Virginia. These snow showers combined with very cold temperatures have
made for hazardous travel conditions tonight.

Additional snowfall accumulations up to a half inch is
possible... and due to the cold temperatures... expect roads to
remain slick into tomorrow morning.